AFR11E KJFK-LFPG
Flight info
| Callsign | AFR11E |
|---|---|
| Flight time | N/A |
| Altitude | 39000 |
| Route | MERIT DCT HFD DCT PUT DCT WITCH DCT ALLEX N535B UMESI/M085F400 DCT 5130N05000W 5330N04000W 5430N03000W 5430N02000W DCT NEBIN DCT OLGON/N0491F410 DCT LEDGO DCT EVCOR DCT ANNET UM25 INGOR/N0494F280 UM25 LUKIP |
| Aircraft | A359/H-SDE2E3GHIJ3J4J5LM1ORWXY/LB1D1 |
Departure
| Time | 2026-05-09 08:11 |
|---|---|
| Airport | John F. Kennedy International Airport (KJFK) |
Arrival
| Time | N/A |
|---|---|
| Airport | Charles de Gaulle International Airport (LFPG) |
| Time | Latitude | Longitude | Altitude | Speed | Heading |
|---|---|---|---|---|---|
| 2026-05-09 07:55 | 40.64073 | -73.78104 | 27 ft | 0 kts | 239° |
| 2026-05-09 08:01 | 40.64075 | -73.78101 | 17 ft | 3 kts | 239° |
| 2026-05-09 08:01 | 40.64088 | -73.78071 | 26 ft | 4 kts | 239° |
| 2026-05-09 08:01 | 40.64104 | -73.78044 | 24 ft | 4 kts | 212° |
| 2026-05-09 08:02 | 40.64127 | -73.78036 | 25 ft | 4 kts | 164° |
| 2026-05-09 08:02 | 40.64143 | -73.78045 | 24 ft | 1 kts | 151° |
| 2026-05-09 08:04 | 40.64138 | -73.78042 | 25 ft | 4 kts | 152° |
| 2026-05-09 08:05 | 40.64087 | -73.78005 | 26 ft | 13 kts | 150° |
| 2026-05-09 08:05 | 40.63980 | -73.77947 | 27 ft | 20 kts | 172° |
| 2026-05-09 08:05 | 40.63829 | -73.77925 | 27 ft | 22 kts | 172° |
| 2026-05-09 08:05 | 40.63671 | -73.77899 | 27 ft | 20 kts | 173° |
| 2026-05-09 08:06 | 40.63568 | -73.77858 | 27 ft | 12 kts | 141° |
| 2026-05-09 08:06 | 40.63527 | -73.77768 | 27 ft | 12 kts | 119° |
| 2026-05-09 08:06 | 40.63547 | -73.77678 | 27 ft | 12 kts | 39° |
| 2026-05-09 08:06 | 40.63637 | -73.77606 | 26 ft | 18 kts | 31° |
| 2026-05-09 08:07 | 40.63758 | -73.77509 | 29 ft | 23 kts | 31° |
| 2026-05-09 08:07 | 40.63901 | -73.77400 | 27 ft | 24 kts | 30° |
| 2026-05-09 08:07 | 40.64048 | -73.77287 | 27 ft | 25 kts | 30° |
| 2026-05-09 08:07 | 40.64195 | -73.77170 | 27 ft | 25 kts | 31° |
| 2026-05-09 08:08 | 40.64348 | -73.77048 | 27 ft | 26 kts | 31° |
| 2026-05-09 08:08 | 40.64517 | -73.76976 | 30 ft | 26 kts | 20° |
| 2026-05-09 08:08 | 40.64674 | -73.76857 | 26 ft | 26 kts | 31° |
| 2026-05-09 08:08 | 40.64833 | -73.76733 | 28 ft | 26 kts | 31° |
| 2026-05-09 08:09 | 40.64993 | -73.76608 | 27 ft | 27 kts | 31° |
| 2026-05-09 08:09 | 40.65081 | -73.76537 | 28 ft | 0 kts | 37° |
| 2026-05-09 08:09 | 40.65099 | -73.76483 | 28 ft | 14 kts | 88° |
| 2026-05-09 08:09 | 40.65045 | -73.76365 | 29 ft | 10 kts | 152° |
| 2026-05-09 08:10 | 40.64993 | -73.76382 | 29 ft | 1 kts | 209° |
| 2026-05-09 08:10 | 40.64805 | -73.76526 | 28 ft | 67 kts | 211° |
| 2026-05-09 08:10 | 40.64215 | -73.76988 | 27 ft | 128 kts | 211° |
| 2026-05-09 08:11 | 40.63305 | -73.77689 | 127 ft | 167 kts | 208° |
| 2026-05-09 08:11 | 40.62341 | -73.78440 | 923 ft | 156 kts | 210° |
| 2026-05-09 08:11 | 40.61393 | -73.79183 | 1478 ft | 166 kts | 210° |
| 2026-05-09 08:11 | 40.60351 | -73.79968 | 1901 ft | 182 kts | 210° |
| 2026-05-09 08:12 | 40.57821 | -73.81800 | 2484 ft | 233 kts | 207° |
| 2026-05-09 08:12 | 40.56197 | -73.82195 | 3111 ft | 245 kts | 178° |
| 2026-05-09 08:12 | 40.54576 | -73.81426 | 3887 ft | 257 kts | 150° |
| 2026-05-09 08:13 | 40.53334 | -73.79640 | 4531 ft | 277 kts | 123° |
| 2026-05-09 08:13 | 40.52783 | -73.77155 | 5152 ft | 293 kts | 96° |
| 2026-05-09 08:13 | 40.52981 | -73.74501 | 5909 ft | 299 kts | 79° |
| 2026-05-09 08:13 | 40.53431 | -73.71813 | 6669 ft | 303 kts | 77° |
| 2026-05-09 08:14 | 40.53916 | -73.69101 | 7465 ft | 306 kts | 77° |
| 2026-05-09 08:14 | 40.54403 | -73.66362 | 8292 ft | 309 kts | 77° |
| 2026-05-09 08:14 | 40.55089 | -73.63680 | 9074 ft | 312 kts | 58° |
| 2026-05-09 08:14 | 40.56410 | -73.61461 | 9917 ft | 309 kts | 41° |
| 2026-05-09 08:15 | 40.58058 | -73.59668 | 10690 ft | 306 kts | 28° |
| 2026-05-09 08:15 | 40.59897 | -73.58193 | 11246 ft | 317 kts | 23° |
| 2026-05-09 08:15 | 40.61908 | -73.56868 | 11750 ft | 327 kts | 19° |
| 2026-05-09 08:15 | 40.64000 | -73.55656 | 12486 ft | 331 kts | 17° |
| 2026-05-09 08:16 | 40.66135 | -73.54490 | 13256 ft | 334 kts | 16° |
| 2026-05-09 08:16 | 40.68303 | -73.53324 | 13980 ft | 338 kts | 16° |
| 2026-05-09 08:16 | 40.70481 | -73.52147 | 14623 ft | 343 kts | 16° |
| 2026-05-09 08:16 | 40.72677 | -73.50946 | 15205 ft | 349 kts | 16° |
| 2026-05-09 08:17 | 40.74938 | -73.49694 | 15805 ft | 355 kts | 16° |
| 2026-05-09 08:17 | 40.77232 | -73.48413 | 16418 ft | 360 kts | 16° |
| 2026-05-09 08:17 | 40.79565 | -73.47101 | 17085 ft | 365 kts | 15° |
| 2026-05-09 08:17 | 40.81899 | -73.45786 | 17696 ft | 371 kts | 15° |
| 2026-05-09 08:18 | 40.84299 | -73.44432 | 18329 ft | 377 kts | 15° |
| 2026-05-09 08:18 | 40.86767 | -73.43044 | 18621 ft | 392 kts | 15° |
| 2026-05-09 08:18 | 40.89294 | -73.41629 | 18873 ft | 406 kts | 15° |
| 2026-05-09 08:18 | 40.91963 | -73.40132 | 19136 ft | 421 kts | 15° |
| 2026-05-09 08:19 | 40.94696 | -73.38591 | 19456 ft | 432 kts | 15° |
| 2026-05-09 08:19 | 40.97458 | -73.37023 | 19967 ft | 438 kts | 15° |
| 2026-05-09 08:19 | 41.00283 | -73.35413 | 20575 ft | 442 kts | 15° |
| 2026-05-09 08:19 | 41.03099 | -73.33806 | 21158 ft | 446 kts | 15° |
| 2026-05-09 08:20 | 41.05961 | -73.32174 | 21759 ft | 449 kts | 15° |
| 2026-05-09 08:20 | 41.08859 | -73.30523 | 22352 ft | 453 kts | 15° |
| 2026-05-09 08:20 | 41.10785 | -73.29427 | 22750 ft | 455 kts | 14° |
| 2026-05-09 08:20 | 41.14669 | -73.27215 | 23583 ft | 458 kts | 14° |
| 2026-05-09 08:21 | 41.17597 | -73.25547 | 24105 ft | 462 kts | 14° |
| 2026-05-09 08:21 | 41.20575 | -73.23851 | 24559 ft | 466 kts | 14° |
| 2026-05-09 08:21 | 41.22554 | -73.22723 | 24879 ft | 468 kts | 14° |
| 2026-05-09 08:21 | 41.25572 | -73.20999 | 25396 ft | 471 kts | 14° |
| 2026-05-09 08:22 | 41.28591 | -73.19272 | 25909 ft | 473 kts | 14° |
| 2026-05-09 08:22 | 41.31630 | -73.17531 | 26414 ft | 476 kts | 14° |
| 2026-05-09 08:22 | 41.34597 | -73.15541 | 26899 ft | 489 kts | 22° |
| 2026-05-09 08:22 | 41.37414 | -73.12875 | 27416 ft | 504 kts | 32° |
| 2026-05-09 08:23 | 41.39909 | -73.09476 | 27917 ft | 518 kts | 43° |
| 2026-05-09 08:23 | 41.42055 | -73.05617 | 28366 ft | 527 kts | 50° |
| 2026-05-09 08:23 | 41.44017 | -73.01431 | 28827 ft | 534 kts | 53° |
| 2026-05-09 08:23 | 41.45859 | -72.97143 | 29265 ft | 538 kts | 55° |
| 2026-05-09 08:24 | 41.47696 | -72.92743 | 29677 ft | 542 kts | 54° |
| 2026-05-09 08:24 | 41.49543 | -72.88334 | 30072 ft | 544 kts | 54° |
| 2026-05-09 08:24 | 41.51394 | -72.83977 | 30398 ft | 547 kts | 54° |
| 2026-05-09 08:24 | 41.53305 | -72.79538 | 30721 ft | 549 kts | 53° |
| 2026-05-09 08:25 | 41.55207 | -72.75162 | 31025 ft | 551 kts | 53° |
| 2026-05-09 08:25 | 41.57151 | -72.70713 | 31318 ft | 554 kts | 53° |
| 2026-05-09 08:25 | 41.59089 | -72.66284 | 31590 ft | 556 kts | 53° |
| 2026-05-09 08:25 | 41.61039 | -72.61821 | 31931 ft | 557 kts | 54° |
| 2026-05-09 08:26 | 41.62993 | -72.57341 | 32355 ft | 556 kts | 54° |
| 2026-05-09 08:26 | 41.64940 | -72.52872 | 32759 ft | 554 kts | 53° |
| 2026-05-09 08:26 | 41.66891 | -72.48487 | 33166 ft | 553 kts | 53° |
| 2026-05-09 08:26 | 41.68890 | -72.44062 | 33621 ft | 551 kts | 52° |
| 2026-05-09 08:27 | 41.70876 | -72.39686 | 34031 ft | 550 kts | 52° |
| 2026-05-09 08:27 | 41.72844 | -72.35345 | 34299 ft | 550 kts | 53° |
| 2026-05-09 08:27 | 41.74827 | -72.30959 | 34557 ft | 551 kts | 53° |
| 2026-05-09 08:27 | 41.76812 | -72.26551 | 34834 ft | 551 kts | 53° |
| 2026-05-09 08:28 | 41.79165 | -72.21304 | 35117 ft | 552 kts | 53° |
| 2026-05-09 08:28 | 41.81117 | -72.16938 | 35305 ft | 553 kts | 53° |
| 2026-05-09 08:28 | 41.83097 | -72.12500 | 35634 ft | 553 kts | 52° |
| 2026-05-09 08:29 | 41.85068 | -72.08071 | 35969 ft | 551 kts | 53° |
| 2026-05-09 08:29 | 41.87033 | -72.03649 | 36204 ft | 552 kts | 53° |
| 2026-05-09 08:29 | 41.89006 | -71.99210 | 36379 ft | 553 kts | 53° |
| 2026-05-09 08:29 | 41.90950 | -71.94829 | 36581 ft | 554 kts | 53° |
| 2026-05-09 08:30 | 41.92919 | -71.90386 | 36768 ft | 554 kts | 53° |
| 2026-05-09 08:30 | 41.94993 | -71.86035 | 36983 ft | 549 kts | 46° |
| 2026-05-09 08:30 | 41.97428 | -71.82163 | 37206 ft | 541 kts | 38° |
| 2026-05-09 08:30 | 42.00041 | -71.78536 | 37478 ft | 537 kts | 37° |
| 2026-05-09 08:31 | 42.02687 | -71.75002 | 37712 ft | 536 kts | 36° |
| 2026-05-09 08:31 | 42.05364 | -71.71501 | 37870 ft | 537 kts | 36° |
| 2026-05-09 08:31 | 42.08052 | -71.68011 | 38033 ft | 537 kts | 36° |
| 2026-05-09 08:31 | 42.10744 | -71.64515 | 38209 ft | 538 kts | 36° |
| 2026-05-09 08:32 | 42.13433 | -71.61011 | 38404 ft | 539 kts | 36° |
| 2026-05-09 08:32 | 42.16127 | -71.57486 | 38604 ft | 539 kts | 37° |
| 2026-05-09 08:32 | 42.21495 | -71.50423 | 38934 ft | 537 kts | 37° |
| 2026-05-09 08:33 | 42.24166 | -71.46898 | 39019 ft | 539 kts | 37° |
| 2026-05-09 08:33 | 42.29488 | -71.39863 | 39029 ft | 540 kts | 37° |
| 2026-05-09 08:34 | 42.34860 | -71.32741 | 39025 ft | 539 kts | 37° |
| 2026-05-09 08:34 | 42.40209 | -71.25633 | 39018 ft | 539 kts | 37° |
| 2026-05-09 08:35 | 42.45558 | -71.18508 | 39037 ft | 539 kts | 37° |
| 2026-05-09 08:35 | 42.50906 | -71.11368 | 39038 ft | 539 kts | 38° |
| 2026-05-09 08:36 | 42.56205 | -71.04275 | 39035 ft | 539 kts | 38° |
| 2026-05-09 08:36 | 42.61545 | -70.97108 | 39037 ft | 539 kts | 38° |
| 2026-05-09 08:37 | 42.66856 | -70.89904 | 39031 ft | 542 kts | 41° |
| 2026-05-09 08:37 | 42.71395 | -70.81606 | 39037 ft | 550 kts | 51° |
| 2026-05-09 08:38 | 42.75592 | -70.72863 | 39030 ft | 552 kts | 52° |
| 2026-05-09 08:38 | 42.79729 | -70.64047 | 39015 ft | 552 kts | 53° |
| 2026-05-09 08:39 | 42.83840 | -70.55292 | 39010 ft | 551 kts | 53° |
| 2026-05-09 08:39 | 42.87984 | -70.46484 | 39008 ft | 551 kts | 52° |
| 2026-05-09 08:40 | 42.92127 | -70.37666 | 39024 ft | 551 kts | 53° |
| 2026-05-09 08:40 | 42.96229 | -70.28908 | 39009 ft | 550 kts | 53° |
| 2026-05-09 08:41 | 43.00350 | -70.20084 | 39005 ft | 550 kts | 53° |
| 2026-05-09 08:41 | 43.04457 | -70.11260 | 39014 ft | 549 kts | 53° |
| 2026-05-09 08:42 | 43.08526 | -70.02494 | 39007 ft | 549 kts | 53° |
| 2026-05-09 08:42 | 43.12619 | -69.93648 | 39011 ft | 549 kts | 53° |
| 2026-05-09 08:43 | 43.16701 | -69.84801 | 39006 ft | 549 kts | 53° |
| 2026-05-09 08:43 | 43.20744 | -69.76011 | 39018 ft | 547 kts | 53° |
| 2026-05-09 08:44 | 43.24788 | -69.67190 | 39015 ft | 546 kts | 53° |
| 2026-05-09 08:44 | 43.28831 | -69.58350 | 39016 ft | 545 kts | 53° |
| 2026-05-09 08:45 | 43.32858 | -69.49517 | 39029 ft | 546 kts | 54° |
| 2026-05-09 08:45 | 43.36879 | -69.40669 | 39019 ft | 545 kts | 54° |
| 2026-05-09 08:46 | 43.40867 | -69.31866 | 39006 ft | 545 kts | 54° |
| 2026-05-09 08:46 | 43.44880 | -69.22982 | 39015 ft | 545 kts | 54° |
| 2026-05-09 08:47 | 43.48857 | -69.14154 | 39015 ft | 544 kts | 54° |
| 2026-05-09 08:47 | 43.52847 | -69.05266 | 39012 ft | 544 kts | 54° |
| 2026-05-09 08:48 | 43.56815 | -68.96401 | 39012 ft | 544 kts | 54° |
| 2026-05-09 08:48 | 43.60769 | -68.87543 | 39019 ft | 544 kts | 55° |
| 2026-05-09 08:49 | 43.64723 | -68.78654 | 39012 ft | 543 kts | 55° |
| 2026-05-09 08:49 | 43.68665 | -68.69766 | 39003 ft | 542 kts | 55° |
| 2026-05-09 08:50 | 43.72611 | -68.60844 | 39007 ft | 543 kts | 55° |
| 2026-05-09 08:50 | 43.76513 | -68.51993 | 39013 ft | 542 kts | 55° |
| 2026-05-09 08:51 | 43.80426 | -68.43088 | 39010 ft | 541 kts | 55° |
| 2026-05-09 08:51 | 43.84335 | -68.34168 | 39006 ft | 541 kts | 55° |
| 2026-05-09 08:52 | 43.88233 | -68.25244 | 39007 ft | 541 kts | 56° |
| 2026-05-09 08:52 | 43.92128 | -68.16300 | 39009 ft | 540 kts | 56° |
| 2026-05-09 08:53 | 43.95982 | -68.07421 | 39003 ft | 540 kts | 56° |
| 2026-05-09 08:53 | 43.99852 | -67.98479 | 39005 ft | 539 kts | 56° |
| 2026-05-09 08:54 | 44.03700 | -67.89558 | 39007 ft | 538 kts | 56° |
| 2026-05-09 08:54 | 44.07520 | -67.80676 | 39004 ft | 537 kts | 56° |
| 2026-05-09 08:55 | 44.11350 | -67.71745 | 39005 ft | 537 kts | 56° |
| 2026-05-09 08:55 | 44.15176 | -67.62793 | 39013 ft | 537 kts | 56° |
| 2026-05-09 08:56 | 44.18989 | -67.53845 | 39011 ft | 537 kts | 56° |
| 2026-05-09 08:56 | 44.22794 | -67.44887 | 38999 ft | 537 kts | 56° |
| 2026-05-09 08:57 | 44.26590 | -67.35921 | 39003 ft | 537 kts | 57° |
| 2026-05-09 08:57 | 44.30362 | -67.26985 | 38992 ft | 537 kts | 57° |
| 2026-05-09 08:58 | 44.34151 | -67.17980 | 39005 ft | 537 kts | 57° |
| 2026-05-09 08:58 | 44.37901 | -67.09041 | 38999 ft | 536 kts | 57° |
| 2026-05-09 08:59 | 44.41770 | -67.00132 | 39003 ft | 534 kts | 51° |
| 2026-05-09 08:59 | 44.46287 | -66.91875 | 38995 ft | 533 kts | 49° |
| 2026-05-09 09:00 | 44.50881 | -66.83791 | 38987 ft | 532 kts | 48° |
| 2026-05-09 09:00 | 44.55517 | -66.75662 | 39003 ft | 533 kts | 48° |
| 2026-05-09 09:01 | 44.60141 | -66.67512 | 38980 ft | 534 kts | 49° |
| 2026-05-09 09:01 | 44.64726 | -66.59388 | 38979 ft | 534 kts | 49° |
| 2026-05-09 09:02 | 44.69344 | -66.51177 | 38977 ft | 534 kts | 49° |
| 2026-05-09 09:02 | 44.73922 | -66.43014 | 38975 ft | 534 kts | 49° |
| 2026-05-09 09:03 | 44.78530 | -66.34776 | 38973 ft | 534 kts | 49° |
| 2026-05-09 09:03 | 44.83106 | -66.26570 | 38974 ft | 534 kts | 49° |
| 2026-05-09 09:04 | 44.87703 | -66.18306 | 38981 ft | 534 kts | 49° |
| 2026-05-09 09:04 | 44.92286 | -66.10039 | 38979 ft | 534 kts | 49° |
| 2026-05-09 09:05 | 44.96858 | -66.01771 | 38984 ft | 534 kts | 50° |
| 2026-05-09 09:05 | 45.01402 | -65.93528 | 38988 ft | 534 kts | 50° |
| 2026-05-09 09:06 | 45.05960 | -65.85235 | 38982 ft | 533 kts | 50° |
| 2026-05-09 09:06 | 45.10479 | -65.76991 | 38978 ft | 532 kts | 50° |
| 2026-05-09 09:07 | 45.15018 | -65.68687 | 38989 ft | 532 kts | 50° |
| 2026-05-09 09:07 | 45.19547 | -65.60375 | 38982 ft | 531 kts | 50° |
| 2026-05-09 09:08 | 45.24034 | -65.52117 | 38982 ft | 531 kts | 50° |
| 2026-05-09 09:08 | 45.28544 | -65.43793 | 38979 ft | 531 kts | 50° |
| 2026-05-09 09:09 | 45.33046 | -65.35460 | 38973 ft | 530 kts | 51° |
| 2026-05-09 09:09 | 45.37537 | -65.27121 | 38974 ft | 529 kts | 51° |
| 2026-05-09 09:10 | 45.41978 | -65.18851 | 38963 ft | 529 kts | 51° |
| 2026-05-09 09:10 | 45.46452 | -65.10496 | 38969 ft | 529 kts | 51° |
| 2026-05-09 09:11 | 45.50901 | -65.02161 | 38964 ft | 528 kts | 51° |
| 2026-05-09 09:11 | 45.55343 | -64.93816 | 38963 ft | 527 kts | 52° |
| 2026-05-09 09:12 | 45.59025 | -64.86882 | 38957 ft | 527 kts | 52° |
| 2026-05-09 09:12 | 45.64172 | -64.77157 | 38958 ft | 528 kts | 52° |
| 2026-05-09 09:13 | 45.67878 | -64.70136 | 38962 ft | 528 kts | 52° |
| 2026-05-09 09:13 | 45.72262 | -64.61804 | 38952 ft | 528 kts | 52° |
| 2026-05-09 09:14 | 45.76673 | -64.53401 | 38955 ft | 527 kts | 52° |
| 2026-05-09 09:14 | 45.81081 | -64.44974 | 38940 ft | 528 kts | 52° |
| 2026-05-09 09:15 | 45.85475 | -64.36551 | 38937 ft | 528 kts | 52° |
| 2026-05-09 09:15 | 45.89843 | -64.28153 | 38938 ft | 528 kts | 53° |
| 2026-05-09 09:16 | 45.94233 | -64.19685 | 38938 ft | 528 kts | 53° |
| 2026-05-09 09:16 | 46.00802 | -64.06970 | 38935 ft | 528 kts | 53° |
| 2026-05-09 09:17 | 46.05173 | -63.98476 | 38939 ft | 528 kts | 53° |
| 2026-05-09 09:17 | 46.09540 | -63.89964 | 38938 ft | 528 kts | 53° |
| 2026-05-09 09:18 | 46.13902 | -63.81437 | 38944 ft | 528 kts | 53° |
| 2026-05-09 09:18 | 46.18257 | -63.72897 | 38941 ft | 528 kts | 53° |
| 2026-05-09 09:19 | 46.22606 | -63.64343 | 38941 ft | 528 kts | 53° |
| 2026-05-09 09:19 | 46.26923 | -63.55825 | 38939 ft | 529 kts | 54° |
| 2026-05-09 09:20 | 46.31264 | -63.47236 | 38935 ft | 529 kts | 54° |
| 2026-05-09 09:20 | 46.35603 | -63.38623 | 38937 ft | 529 kts | 54° |
| 2026-05-09 09:21 | 46.39914 | -63.30040 | 38933 ft | 529 kts | 54° |
| 2026-05-09 09:21 | 46.44235 | -63.21408 | 38935 ft | 529 kts | 54° |
| 2026-05-09 09:22 | 46.48551 | -63.12762 | 38938 ft | 529 kts | 54° |
| 2026-05-09 09:22 | 46.52854 | -63.04114 | 38941 ft | 528 kts | 54° |
| 2026-05-09 09:23 | 46.57134 | -62.95486 | 38941 ft | 528 kts | 54° |
| 2026-05-09 09:23 | 46.61426 | -62.86807 | 38941 ft | 528 kts | 54° |
| 2026-05-09 09:24 | 46.65721 | -62.78095 | 38941 ft | 528 kts | 55° |
| 2026-05-09 09:24 | 46.69975 | -62.69439 | 38944 ft | 528 kts | 55° |
| 2026-05-09 09:25 | 46.74246 | -62.60721 | 38949 ft | 528 kts | 55° |
| 2026-05-09 09:25 | 46.78511 | -62.51988 | 38941 ft | 528 kts | 55° |
| 2026-05-09 09:26 | 46.82769 | -62.43242 | 38949 ft | 529 kts | 55° |
| 2026-05-09 09:26 | 46.87031 | -62.34459 | 38951 ft | 530 kts | 55° |
| 2026-05-09 09:27 | 46.91288 | -62.25661 | 38951 ft | 530 kts | 56° |
| 2026-05-09 09:27 | 46.95537 | -62.16850 | 38953 ft | 530 kts | 56° |
| 2026-05-09 09:28 | 46.99782 | -62.08019 | 38955 ft | 530 kts | 56° |
| 2026-05-09 09:28 | 47.04005 | -61.99207 | 38946 ft | 530 kts | 56° |
| 2026-05-09 09:29 | 47.08239 | -61.90342 | 38941 ft | 530 kts | 56° |
| 2026-05-09 09:29 | 47.12467 | -61.81463 | 38927 ft | 530 kts | 56° |
| 2026-05-09 09:30 | 47.16667 | -61.72612 | 38928 ft | 531 kts | 56° |
| 2026-05-09 09:30 | 47.20890 | -61.63686 | 38922 ft | 531 kts | 56° |
| 2026-05-09 09:31 | 47.25081 | -61.54798 | 38920 ft | 531 kts | 56° |
| 2026-05-09 09:32 | 47.31397 | -61.41350 | 38919 ft | 532 kts | 57° |
| 2026-05-09 09:32 | 47.35612 | -61.32339 | 38923 ft | 532 kts | 57° |
| 2026-05-09 09:33 | 47.39787 | -61.23383 | 38928 ft | 532 kts | 57° |
| 2026-05-09 09:33 | 47.43982 | -61.14356 | 38927 ft | 532 kts | 57° |
| 2026-05-09 09:34 | 47.48166 | -61.05324 | 38925 ft | 532 kts | 57° |
| 2026-05-09 09:34 | 47.52347 | -60.96265 | 38927 ft | 532 kts | 57° |
| 2026-05-09 09:36 | 47.68943 | -60.60018 | 38902 ft | 532 kts | 58° |
| 2026-05-09 09:37 | 47.73090 | -60.50886 | 38916 ft | 533 kts | 58° |
| 2026-05-09 09:37 | 47.77228 | -60.41742 | 38906 ft | 533 kts | 58° |
| 2026-05-09 09:38 | 47.81335 | -60.32636 | 38907 ft | 533 kts | 58° |
| 2026-05-09 09:38 | 47.85462 | -60.23456 | 38903 ft | 533 kts | 58° |
| 2026-05-09 09:39 | 47.89576 | -60.14274 | 38900 ft | 533 kts | 58° |
| 2026-05-09 09:39 | 47.93692 | -60.05056 | 38900 ft | 533 kts | 58° |
| 2026-05-09 09:40 | 47.97773 | -59.95885 | 38897 ft | 533 kts | 58° |
| 2026-05-09 09:40 | 48.01873 | -59.86639 | 38894 ft | 533 kts | 58° |
| 2026-05-09 09:41 | 48.05935 | -59.77451 | 38896 ft | 532 kts | 59° |
| 2026-05-09 09:41 | 48.10011 | -59.68198 | 38892 ft | 532 kts | 59° |
| 2026-05-09 09:42 | 48.14060 | -59.58976 | 38886 ft | 532 kts | 59° |
| 2026-05-09 09:42 | 48.18122 | -59.49691 | 38892 ft | 532 kts | 59° |
| 2026-05-09 09:43 | 48.22184 | -59.40375 | 38892 ft | 532 kts | 59° |
| 2026-05-09 09:43 | 48.26202 | -59.31128 | 38886 ft | 532 kts | 59° |
| 2026-05-09 09:44 | 48.30234 | -59.21816 | 38889 ft | 531 kts | 60° |
| 2026-05-09 09:44 | 48.34261 | -59.12485 | 38882 ft | 531 kts | 60° |
| 2026-05-09 09:45 | 48.38279 | -59.03143 | 38875 ft | 531 kts | 60° |
| 2026-05-09 09:45 | 48.42257 | -58.93862 | 38879 ft | 531 kts | 60° |
| 2026-05-09 09:46 | 48.46268 | -58.84470 | 38878 ft | 531 kts | 60° |
| 2026-05-09 09:46 | 48.50239 | -58.75140 | 38875 ft | 532 kts | 60° |
| 2026-05-09 09:47 | 48.54225 | -58.65741 | 38875 ft | 532 kts | 60° |
| 2026-05-09 09:47 | 48.58213 | -58.56306 | 38846 ft | 531 kts | 61° |
| 2026-05-09 09:48 | 48.62193 | -58.46855 | 38870 ft | 534 kts | 61° |
| 2026-05-09 09:48 | 48.66175 | -58.37367 | 38867 ft | 534 kts | 61° |
| 2026-05-09 09:49 | 48.70129 | -58.27912 | 38864 ft | 534 kts | 61° |
| 2026-05-09 09:49 | 48.74110 | -58.18361 | 38861 ft | 534 kts | 62° |
| 2026-05-09 09:50 | 48.78047 | -58.08881 | 38854 ft | 534 kts | 62° |
| 2026-05-09 09:50 | 48.82002 | -57.99320 | 38854 ft | 534 kts | 62° |
| 2026-05-09 09:51 | 48.85924 | -57.89808 | 38845 ft | 534 kts | 62° |
| 2026-05-09 09:51 | 48.89859 | -57.80231 | 38839 ft | 534 kts | 62° |
| 2026-05-09 09:52 | 48.93785 | -57.70641 | 38839 ft | 534 kts | 62° |
| 2026-05-09 09:52 | 48.97705 | -57.61030 | 38837 ft | 534 kts | 62° |
| 2026-05-09 09:53 | 49.01600 | -57.51447 | 38831 ft | 534 kts | 62° |
| 2026-05-09 09:53 | 49.05509 | -57.41794 | 38828 ft | 534 kts | 62° |
| 2026-05-09 09:54 | 49.09409 | -57.32126 | 38829 ft | 535 kts | 63° |
| 2026-05-09 09:54 | 49.13311 | -57.22420 | 38829 ft | 536 kts | 63° |
| 2026-05-09 09:55 | 49.17180 | -57.12763 | 38818 ft | 536 kts | 63° |
| 2026-05-09 09:55 | 49.21070 | -57.03014 | 38818 ft | 536 kts | 63° |
| 2026-05-09 09:56 | 49.24952 | -56.93251 | 38813 ft | 536 kts | 63° |
| 2026-05-09 09:56 | 49.28824 | -56.83479 | 38828 ft | 536 kts | 63° |
| 2026-05-09 09:57 | 49.32659 | -56.73762 | 38819 ft | 536 kts | 63° |
| 2026-05-09 09:57 | 49.36512 | -56.63961 | 38816 ft | 536 kts | 63° |
| 2026-05-09 09:58 | 49.40351 | -56.54162 | 38801 ft | 535 kts | 64° |
| 2026-05-09 09:58 | 49.44187 | -56.44336 | 38791 ft | 535 kts | 64° |
| 2026-05-09 09:59 | 49.47990 | -56.34558 | 38812 ft | 535 kts | 64° |
| 2026-05-09 09:59 | 49.51796 | -56.24734 | 38816 ft | 534 kts | 64° |
| 2026-05-09 10:00 | 49.55596 | -56.14888 | 38801 ft | 534 kts | 64° |
| 2026-05-09 10:00 | 49.59368 | -56.05078 | 38802 ft | 534 kts | 65° |
| 2026-05-09 10:01 | 49.63153 | -55.95199 | 38812 ft | 534 kts | 65° |
| 2026-05-09 10:01 | 49.66924 | -55.85319 | 38815 ft | 534 kts | 65° |
| 2026-05-09 10:02 | 49.70689 | -55.75414 | 38818 ft | 534 kts | 65° |
| 2026-05-09 10:02 | 49.74420 | -55.65563 | 38797 ft | 534 kts | 65° |
| 2026-05-09 10:03 | 49.78164 | -55.55640 | 38799 ft | 534 kts | 65° |
| 2026-05-09 10:03 | 49.81904 | -55.45692 | 38810 ft | 534 kts | 65° |
| 2026-05-09 10:04 | 49.85007 | -55.37407 | 38811 ft | 534 kts | 65° |
| 2026-05-09 10:04 | 49.88734 | -55.27422 | 38798 ft | 534 kts | 66° |
| 2026-05-09 10:05 | 49.92428 | -55.17489 | 38798 ft | 534 kts | 66° |
| 2026-05-09 10:05 | 49.96119 | -55.07521 | 38798 ft | 534 kts | 66° |
| 2026-05-09 10:06 | 49.99816 | -54.97501 | 38801 ft | 534 kts | 66° |
| 2026-05-09 10:06 | 50.03513 | -54.87443 | 38804 ft | 535 kts | 67° |
| 2026-05-09 10:07 | 50.07202 | -54.77367 | 38792 ft | 535 kts | 67° |
| 2026-05-09 10:07 | 50.10856 | -54.67350 | 38784 ft | 535 kts | 67° |
| 2026-05-09 10:08 | 50.14529 | -54.57241 | 38785 ft | 535 kts | 67° |
| 2026-05-09 10:08 | 50.18191 | -54.47120 | 38779 ft | 536 kts | 68° |
| 2026-05-09 10:09 | 50.21850 | -54.36964 | 38768 ft | 537 kts | 68° |
| 2026-05-09 10:09 | 50.25516 | -54.26756 | 38763 ft | 537 kts | 68° |
| 2026-05-09 10:10 | 50.29141 | -54.16621 | 38754 ft | 537 kts | 68° |
| 2026-05-09 10:10 | 50.32776 | -54.06415 | 38712 ft | 536 kts | 68° |
| 2026-05-09 10:11 | 50.36407 | -53.96175 | 38744 ft | 539 kts | 68° |
| 2026-05-09 10:11 | 50.40045 | -53.85875 | 38746 ft | 540 kts | 68° |
| 2026-05-09 10:12 | 50.43653 | -53.75627 | 38714 ft | 539 kts | 69° |
| 2026-05-09 10:12 | 50.47287 | -53.65260 | 38733 ft | 541 kts | 69° |
| 2026-05-09 10:13 | 50.50896 | -53.54919 | 38726 ft | 541 kts | 69° |
| 2026-05-09 10:13 | 50.54510 | -53.44526 | 38714 ft | 541 kts | 69° |
| 2026-05-09 10:14 | 50.58093 | -53.34179 | 38701 ft | 541 kts | 69° |
| 2026-05-09 10:14 | 50.61673 | -53.23794 | 38704 ft | 542 kts | 69° |
| 2026-05-09 10:15 | 50.65263 | -53.13339 | 38694 ft | 542 kts | 69° |
| 2026-05-09 10:15 | 50.68844 | -53.02870 | 38693 ft | 542 kts | 70° |
| 2026-05-09 10:16 | 50.72414 | -52.92388 | 38684 ft | 542 kts | 70° |
| 2026-05-09 10:16 | 50.75961 | -52.81925 | 38681 ft | 543 kts | 70° |
| 2026-05-09 10:17 | 50.79531 | -52.71353 | 38680 ft | 545 kts | 70° |
| 2026-05-09 10:17 | 50.83097 | -52.60753 | 38678 ft | 545 kts | 70° |
| 2026-05-09 10:18 | 50.86352 | -52.49983 | 38679 ft | 539 kts | 76° |
| 2026-05-09 10:18 | 50.89152 | -52.39060 | 38675 ft | 538 kts | 76° |
| 2026-05-09 10:19 | 50.91986 | -52.28037 | 38672 ft | 539 kts | 76° |
| 2026-05-09 10:19 | 50.94872 | -52.17097 | 38674 ft | 540 kts | 75° |
| 2026-05-09 10:20 | 50.97790 | -52.06123 | 38669 ft | 540 kts | 75° |
| 2026-05-09 10:20 | 51.00692 | -51.95173 | 38678 ft | 541 kts | 75° |
| 2026-05-09 10:21 | 51.03600 | -51.84131 | 38680 ft | 540 kts | 75° |
| 2026-05-09 10:21 | 51.06493 | -51.73090 | 38677 ft | 541 kts | 75° |
| 2026-05-09 10:22 | 51.09355 | -51.62103 | 38676 ft | 540 kts | 75° |
| 2026-05-09 10:22 | 51.12225 | -51.51040 | 38685 ft | 540 kts | 75° |
| 2026-05-09 10:23 | 51.15081 | -51.39977 | 38697 ft | 539 kts | 75° |
| 2026-05-09 10:23 | 51.17922 | -51.28915 | 38690 ft | 539 kts | 75° |
| 2026-05-09 10:24 | 51.20737 | -51.17904 | 38681 ft | 539 kts | 75° |
| 2026-05-09 10:24 | 51.23556 | -51.06822 | 38698 ft | 538 kts | 75° |
| 2026-05-09 10:25 | 51.26362 | -50.95732 | 38704 ft | 537 kts | 75° |
| 2026-05-09 10:25 | 51.29135 | -50.84720 | 38705 ft | 537 kts | 75° |
| 2026-05-09 10:26 | 51.31916 | -50.73621 | 38624 ft | 537 kts | 75° |
| 2026-05-09 10:26 | 51.34682 | -50.62530 | 38707 ft | 535 kts | 75° |
| 2026-05-09 10:27 | 51.37427 | -50.51470 | 38714 ft | 534 kts | 75° |
| 2026-05-09 10:27 | 51.40145 | -50.40455 | 38718 ft | 534 kts | 75° |
| 2026-05-09 10:28 | 51.42866 | -50.29378 | 38726 ft | 534 kts | 75° |
| 2026-05-09 10:28 | 51.45579 | -50.18279 | 38728 ft | 532 kts | 75° |
| 2026-05-09 10:29 | 51.48254 | -50.07283 | 38736 ft | 531 kts | 75° |
| 2026-05-09 10:29 | 51.50938 | -49.96224 | 38736 ft | 531 kts | 75° |
| 2026-05-09 10:30 | 51.53690 | -49.85270 | 38748 ft | 532 kts | 75° |
| 2026-05-09 10:30 | 51.56480 | -49.74242 | 38750 ft | 532 kts | 75° |
| 2026-05-09 10:31 | 51.59252 | -49.63184 | 38721 ft | 531 kts | 75° |
| 2026-05-09 10:31 | 51.61997 | -49.52136 | 38748 ft | 529 kts | 75° |
| 2026-05-09 10:32 | 51.64696 | -49.41204 | 38763 ft | 529 kts | 75° |
| 2026-05-09 10:32 | 51.67403 | -49.30182 | 38756 ft | 528 kts | 75° |
| 2026-05-09 10:33 | 51.70091 | -49.19198 | 38763 ft | 524 kts | 76° |
| 2026-05-09 10:33 | 51.72737 | -49.08320 | 38774 ft | 523 kts | 76° |
| 2026-05-09 10:34 | 51.75387 | -48.97366 | 38787 ft | 523 kts | 76° |
| 2026-05-09 10:34 | 51.79321 | -48.81008 | 38787 ft | 521 kts | 76° |
| 2026-05-09 10:35 | 51.81927 | -48.70120 | 38792 ft | 516 kts | 76° |
| 2026-05-09 10:35 | 51.84489 | -48.59346 | 38801 ft | 516 kts | 76° |
| 2026-05-09 10:36 | 51.87055 | -48.48494 | 38796 ft | 516 kts | 76° |
| 2026-05-09 10:36 | 51.89607 | -48.37660 | 38803 ft | 514 kts | 76° |
| 2026-05-09 10:37 | 51.92139 | -48.26859 | 38822 ft | 512 kts | 76° |
| 2026-05-09 10:37 | 51.94655 | -48.16067 | 38819 ft | 511 kts | 76° |
| 2026-05-09 10:38 | 51.97142 | -48.05338 | 38828 ft | 511 kts | 76° |
| 2026-05-09 10:38 | 51.99634 | -47.94538 | 38831 ft | 511 kts | 76° |
| 2026-05-09 10:39 | 52.02123 | -47.83699 | 38838 ft | 512 kts | 76° |
| 2026-05-09 10:39 | 52.04600 | -47.72855 | 38849 ft | 512 kts | 77° |
| 2026-05-09 10:40 | 52.07054 | -47.62058 | 38855 ft | 512 kts | 77° |
| 2026-05-09 10:40 | 52.09518 | -47.51165 | 38861 ft | 512 kts | 77° |
| 2026-05-09 10:41 | 52.11965 | -47.40287 | 38862 ft | 512 kts | 77° |
| 2026-05-09 10:41 | 52.14391 | -47.29441 | 38873 ft | 514 kts | 76° |
| 2026-05-09 10:42 | 52.16831 | -47.18478 | 38880 ft | 514 kts | 76° |
| 2026-05-09 10:42 | 52.19263 | -47.07499 | 38892 ft | 514 kts | 76° |
| 2026-05-09 10:43 | 52.21684 | -46.96512 | 38877 ft | 514 kts | 76° |
| 2026-05-09 10:43 | 52.24090 | -46.85526 | 38908 ft | 514 kts | 76° |
| 2026-05-09 10:44 | 52.26473 | -46.74596 | 38915 ft | 514 kts | 76° |
| 2026-05-09 10:44 | 52.28858 | -46.63600 | 38931 ft | 513 kts | 76° |
| 2026-05-09 10:46 | 52.34776 | -46.36042 | 38943 ft | 513 kts | 76° |
| 2026-05-09 10:46 | 52.37111 | -46.25066 | 38953 ft | 512 kts | 76° |
| 2026-05-09 10:47 | 52.39447 | -46.14025 | 38953 ft | 513 kts | 76° |
| 2026-05-09 10:47 | 52.41756 | -46.03050 | 38979 ft | 512 kts | 76° |
| 2026-05-09 10:48 | 52.44072 | -45.91982 | 38974 ft | 512 kts | 76° |
| 2026-05-09 10:48 | 52.46372 | -45.80935 | 38986 ft | 512 kts | 76° |
| 2026-05-09 10:49 | 52.48664 | -45.69860 | 38985 ft | 511 kts | 77° |
| 2026-05-09 10:49 | 52.50927 | -45.58864 | 38993 ft | 511 kts | 77° |
| 2026-05-09 10:50 | 52.53195 | -45.47786 | 38984 ft | 511 kts | 77° |
| 2026-05-09 10:50 | 52.55438 | -45.36767 | 39003 ft | 510 kts | 77° |
| 2026-05-09 10:51 | 52.57683 | -45.25677 | 39010 ft | 510 kts | 77° |
| 2026-05-09 10:51 | 52.59914 | -45.14593 | 39026 ft | 510 kts | 77° |
| 2026-05-09 10:52 | 52.62119 | -45.03575 | 39034 ft | 510 kts | 77° |
| 2026-05-09 10:52 | 52.64328 | -44.92473 | 39037 ft | 510 kts | 77° |
| 2026-05-09 10:53 | 52.66524 | -44.81373 | 39048 ft | 510 kts | 77° |
| 2026-05-09 10:53 | 52.68709 | -44.70265 | 39060 ft | 509 kts | 77° |
| 2026-05-09 10:54 | 52.70888 | -44.59129 | 39061 ft | 509 kts | 77° |
| 2026-05-09 10:54 | 52.73040 | -44.48065 | 39053 ft | 509 kts | 78° |
| 2026-05-09 10:55 | 52.75197 | -44.36907 | 39071 ft | 510 kts | 78° |
| 2026-05-09 10:55 | 52.76980 | -44.27631 | 39090 ft | 510 kts | 78° |
| 2026-05-09 10:56 | 52.79473 | -44.14594 | 39090 ft | 510 kts | 78° |
| 2026-05-09 10:56 | 52.81242 | -44.05289 | 39101 ft | 510 kts | 78° |
| 2026-05-09 10:57 | 52.83363 | -43.94067 | 39104 ft | 510 kts | 78° |
| 2026-05-09 10:57 | 52.85464 | -43.82887 | 39114 ft | 511 kts | 78° |
| 2026-05-09 10:58 | 52.87562 | -43.71653 | 39125 ft | 510 kts | 78° |
| 2026-05-09 10:58 | 52.89638 | -43.60473 | 39135 ft | 510 kts | 78° |
| 2026-05-09 10:59 | 52.91716 | -43.49215 | 39135 ft | 510 kts | 78° |
| 2026-05-09 10:59 | 52.93778 | -43.37973 | 39151 ft | 508 kts | 78° |
| 2026-05-09 11:00 | 52.95812 | -43.26825 | 39170 ft | 507 kts | 78° |
| 2026-05-09 11:00 | 52.97846 | -43.15595 | 39171 ft | 507 kts | 78° |
| 2026-05-09 11:01 | 52.99856 | -43.04433 | 39179 ft | 507 kts | 78° |
| 2026-05-09 11:01 | 53.01864 | -42.93214 | 39169 ft | 506 kts | 78° |
| 2026-05-09 11:02 | 53.03855 | -42.82020 | 39187 ft | 506 kts | 78° |
| 2026-05-09 11:02 | 53.05842 | -42.70782 | 39200 ft | 506 kts | 78° |
| 2026-05-09 11:03 | 53.07808 | -42.59592 | 39208 ft | 506 kts | 78° |
| 2026-05-09 11:03 | 53.09763 | -42.48392 | 39206 ft | 505 kts | 78° |
| 2026-05-09 11:04 | 53.11711 | -42.37165 | 39216 ft | 504 kts | 77° |
| 2026-05-09 11:04 | 53.13649 | -42.25918 | 39227 ft | 504 kts | 77° |
| 2026-05-09 11:05 | 53.15575 | -42.14678 | 39235 ft | 504 kts | 77° |
| 2026-05-09 11:05 | 53.17481 | -42.03477 | 39235 ft | 504 kts | 78° |
| 2026-05-09 11:06 | 53.19388 | -41.92199 | 39240 ft | 504 kts | 78° |
| 2026-05-09 11:06 | 53.21272 | -41.80982 | 39270 ft | 505 kts | 77° |
| 2026-05-09 11:07 | 53.23163 | -41.69658 | 39269 ft | 505 kts | 77° |
| 2026-05-09 11:07 | 53.25034 | -41.58372 | 39278 ft | 505 kts | 78° |
| 2026-05-09 11:08 | 53.26899 | -41.47056 | 39277 ft | 505 kts | 78° |
| 2026-05-09 11:08 | 53.28740 | -41.35802 | 39277 ft | 505 kts | 77° |
| 2026-05-09 11:09 | 53.30583 | -41.24467 | 39286 ft | 504 kts | 77° |
| 2026-05-09 11:09 | 53.32401 | -41.13210 | 39304 ft | 503 kts | 78° |
| 2026-05-09 11:10 | 53.34219 | -41.01877 | 39302 ft | 503 kts | 78° |
| 2026-05-09 11:10 | 53.36016 | -40.90601 | 39311 ft | 503 kts | 78° |
| 2026-05-09 11:11 | 53.37804 | -40.79300 | 39318 ft | 502 kts | 78° |
| 2026-05-09 11:11 | 53.39587 | -40.67959 | 39327 ft | 502 kts | 78° |
| 2026-05-09 11:12 | 53.41352 | -40.56647 | 39328 ft | 502 kts | 78° |
| 2026-05-09 11:12 | 53.43097 | -40.45388 | 39336 ft | 502 kts | 78° |
| 2026-05-09 11:13 | 53.44846 | -40.34032 | 39335 ft | 502 kts | 78° |
| 2026-05-09 11:13 | 53.46581 | -40.22684 | 39348 ft | 501 kts | 78° |
| 2026-05-09 11:14 | 53.48302 | -40.11347 | 39354 ft | 501 kts | 78° |
| 2026-05-09 11:14 | 53.50000 | -40.00083 | 39361 ft | 501 kts | 78° |
| 2026-05-09 11:15 | 53.51667 | -39.88720 | 39372 ft | 500 kts | 78° |
| 2026-05-09 11:15 | 53.53280 | -39.77355 | 39373 ft | 500 kts | 78° |
| 2026-05-09 11:16 | 53.54888 | -39.65961 | 39391 ft | 500 kts | 79° |
| 2026-05-09 11:16 | 53.56481 | -39.54647 | 39392 ft | 500 kts | 78° |
| 2026-05-09 11:17 | 53.58077 | -39.43249 | 39385 ft | 500 kts | 78° |
| 2026-05-09 11:17 | 53.59663 | -39.31848 | 39388 ft | 500 kts | 79° |
| 2026-05-09 11:18 | 53.61236 | -39.20441 | 39398 ft | 499 kts | 78° |
| 2026-05-09 11:18 | 53.62789 | -39.09093 | 39404 ft | 499 kts | 78° |
| 2026-05-09 11:19 | 53.64343 | -38.97657 | 39408 ft | 499 kts | 79° |
| 2026-05-09 11:19 | 53.65874 | -38.86295 | 39410 ft | 499 kts | 79° |
| 2026-05-09 11:20 | 53.67396 | -38.74911 | 39412 ft | 499 kts | 79° |
| 2026-05-09 11:20 | 53.68909 | -38.63507 | 39428 ft | 496 kts | 78° |
| 2026-05-09 11:21 | 53.70405 | -38.52150 | 39434 ft | 495 kts | 78° |
| 2026-05-09 11:21 | 53.71877 | -38.40875 | 39439 ft | 494 kts | 78° |
| 2026-05-09 11:22 | 53.73346 | -38.29535 | 39436 ft | 495 kts | 78° |
| 2026-05-09 11:22 | 53.74811 | -38.18143 | 39462 ft | 495 kts | 78° |
| 2026-05-09 11:23 | 53.76248 | -38.06865 | 39461 ft | 494 kts | 78° |
| 2026-05-09 11:23 | 53.77685 | -37.95505 | 39468 ft | 494 kts | 78° |
| 2026-05-09 11:24 | 53.79114 | -37.84118 | 39459 ft | 494 kts | 78° |
| 2026-05-09 11:24 | 53.80527 | -37.72755 | 39473 ft | 493 kts | 78° |
| 2026-05-09 11:25 | 53.81930 | -37.61385 | 39476 ft | 493 kts | 78° |
| 2026-05-09 11:25 | 53.83316 | -37.50060 | 39487 ft | 493 kts | 77° |
| 2026-05-09 11:26 | 53.84696 | -37.38686 | 39490 ft | 491 kts | 77° |
| 2026-05-09 11:26 | 53.86060 | -37.27346 | 39492 ft | 491 kts | 77° |
| 2026-05-09 11:27 | 53.87406 | -37.16065 | 39497 ft | 491 kts | 77° |
| 2026-05-09 11:27 | 53.88748 | -37.04711 | 39510 ft | 491 kts | 77° |
| 2026-05-09 11:28 | 53.90079 | -36.93363 | 39505 ft | 490 kts | 77° |
| 2026-05-09 11:28 | 53.91399 | -36.82006 | 39517 ft | 490 kts | 77° |
| 2026-05-09 11:29 | 53.92708 | -36.70651 | 39523 ft | 490 kts | 77° |
| 2026-05-09 11:29 | 53.93999 | -36.59345 | 39527 ft | 490 kts | 77° |
| 2026-05-09 11:30 | 53.95287 | -36.47968 | 39526 ft | 490 kts | 77° |
| 2026-05-09 11:30 | 53.96559 | -36.36622 | 39536 ft | 488 kts | 77° |
| 2026-05-09 11:31 | 53.97820 | -36.25286 | 39528 ft | 488 kts | 77° |
| 2026-05-09 11:31 | 53.99061 | -36.14024 | 39540 ft | 487 kts | 77° |
| 2026-05-09 11:32 | 54.00288 | -36.02778 | 39549 ft | 482 kts | 77° |
| 2026-05-09 11:32 | 54.01499 | -35.91572 | 39551 ft | 480 kts | 77° |
| 2026-05-09 11:33 | 54.02694 | -35.80407 | 39553 ft | 478 kts | 77° |
| 2026-05-09 11:33 | 54.04467 | -35.63694 | 39566 ft | 478 kts | 77° |
| 2026-05-09 11:34 | 54.05630 | -35.52600 | 39570 ft | 478 kts | 77° |
| 2026-05-09 11:34 | 54.06787 | -35.41449 | 39581 ft | 478 kts | 77° |
| 2026-05-09 11:35 | 54.07934 | -35.30279 | 39573 ft | 477 kts | 77° |
| 2026-05-09 11:35 | 54.09063 | -35.19188 | 39574 ft | 477 kts | 77° |
| 2026-05-09 11:36 | 54.10188 | -35.08033 | 39575 ft | 477 kts | 77° |
| 2026-05-09 11:36 | 54.11295 | -34.96944 | 39593 ft | 477 kts | 77° |
| 2026-05-09 11:37 | 54.12393 | -34.85836 | 39581 ft | 476 kts | 77° |
| 2026-05-09 11:37 | 54.13479 | -34.74724 | 39588 ft | 470 kts | 77° |
| 2026-05-09 11:38 | 54.14543 | -34.63736 | 39593 ft | 468 kts | 77° |
| 2026-05-09 11:38 | 54.15590 | -34.52843 | 39599 ft | 468 kts | 77° |
| 2026-05-09 11:39 | 54.16633 | -34.41867 | 39600 ft | 469 kts | 77° |
| 2026-05-09 11:40 | 54.18180 | -34.25382 | 39601 ft | 469 kts | 77° |
| 2026-05-09 11:40 | 54.19199 | -34.14383 | 39604 ft | 469 kts | 77° |
| 2026-05-09 11:41 | 54.20203 | -34.03423 | 39611 ft | 469 kts | 77° |
| 2026-05-09 11:41 | 54.21204 | -33.92395 | 39610 ft | 469 kts | 77° |
| 2026-05-09 11:42 | 54.22194 | -33.81360 | 39608 ft | 469 kts | 78° |
| 2026-05-09 11:42 | 54.23174 | -33.70319 | 39624 ft | 469 kts | 77° |
| 2026-05-09 11:43 | 54.24135 | -33.59371 | 39612 ft | 468 kts | 77° |
| 2026-05-09 11:43 | 54.25091 | -33.48369 | 39609 ft | 466 kts | 77° |
| 2026-05-09 11:44 | 54.26029 | -33.37445 | 39619 ft | 462 kts | 77° |
| 2026-05-09 11:44 | 54.26953 | -33.26574 | 39627 ft | 462 kts | 77° |
| 2026-05-09 11:45 | 54.27870 | -33.15688 | 39644 ft | 462 kts | 77° |
| 2026-05-09 11:45 | 54.28771 | -33.04848 | 39621 ft | 461 kts | 77° |
| 2026-05-09 11:46 | 54.29667 | -32.93947 | 39624 ft | 461 kts | 77° |
| 2026-05-09 11:46 | 54.30546 | -32.83131 | 39624 ft | 461 kts | 77° |
| 2026-05-09 11:47 | 54.31423 | -32.72221 | 39629 ft | 461 kts | 78° |
| 2026-05-09 11:47 | 54.32288 | -32.61331 | 39629 ft | 461 kts | 78° |
| 2026-05-09 11:48 | 54.32999 | -32.52274 | 39634 ft | 461 kts | 77° |
| 2026-05-09 11:48 | 54.33980 | -32.39617 | 39635 ft | 460 kts | 77° |
| 2026-05-09 11:49 | 54.34675 | -32.30568 | 39638 ft | 460 kts | 78° |
| 2026-05-09 11:49 | 54.35500 | -32.19689 | 39640 ft | 460 kts | 78° |
| 2026-05-09 11:50 | 54.36316 | -32.08792 | 39640 ft | 460 kts | 78° |
| 2026-05-09 11:50 | 54.37118 | -31.97955 | 39649 ft | 460 kts | 77° |
| 2026-05-09 11:51 | 54.37912 | -31.87074 | 39647 ft | 459 kts | 78° |
| 2026-05-09 11:51 | 54.38695 | -31.76221 | 39648 ft | 458 kts | 78° |
| 2026-05-09 11:52 | 54.39468 | -31.65375 | 39645 ft | 458 kts | 78° |
| 2026-05-09 11:52 | 54.40232 | -31.54501 | 39646 ft | 458 kts | 78° |
| 2026-05-09 11:53 | 54.40981 | -31.43697 | 39673 ft | 458 kts | 78° |
| 2026-05-09 11:53 | 54.41726 | -31.32807 | 39653 ft | 458 kts | 78° |
| 2026-05-09 11:54 | 54.42460 | -31.21943 | 39653 ft | 458 kts | 78° |
| 2026-05-09 11:54 | 54.43180 | -31.11133 | 39656 ft | 458 kts | 78° |
| 2026-05-09 11:55 | 54.43896 | -31.00242 | 39654 ft | 458 kts | 78° |
| 2026-05-09 11:56 | 54.45974 | -30.67667 | 39666 ft | 457 kts | 77° |
| 2026-05-09 11:57 | 54.46647 | -30.56808 | 39654 ft | 457 kts | 78° |
| 2026-05-09 11:57 | 54.47312 | -30.45931 | 39657 ft | 457 kts | 78° |
| 2026-05-09 11:58 | 54.47963 | -30.35109 | 39654 ft | 457 kts | 78° |
| 2026-05-09 11:58 | 54.48610 | -30.24196 | 39678 ft | 457 kts | 77° |
| 2026-05-09 11:59 | 54.49242 | -30.13341 | 39666 ft | 455 kts | 78° |
| 2026-05-09 11:59 | 54.49861 | -30.02560 | 39670 ft | 455 kts | 78° |
| 2026-05-09 12:00 | 54.50422 | -29.91685 | 39667 ft | 457 kts | 79° |
| 2026-05-09 12:00 | 54.50832 | -29.80758 | 39668 ft | 457 kts | 79° |
| 2026-05-09 12:01 | 54.51224 | -29.69888 | 39690 ft | 457 kts | 79° |
| 2026-05-09 12:01 | 54.51631 | -29.58975 | 39669 ft | 456 kts | 79° |
| 2026-05-09 12:02 | 54.52038 | -29.48084 | 39670 ft | 454 kts | 79° |
| 2026-05-09 12:02 | 54.52432 | -29.37327 | 39672 ft | 452 kts | 79° |
| 2026-05-09 12:03 | 54.52821 | -29.26496 | 39671 ft | 452 kts | 79° |
| 2026-05-09 12:03 | 54.53199 | -29.15657 | 39672 ft | 453 kts | 79° |
| 2026-05-09 12:04 | 54.53566 | -29.04836 | 39668 ft | 453 kts | 79° |
| 2026-05-09 12:04 | 54.53921 | -28.94067 | 39671 ft | 453 kts | 79° |
| 2026-05-09 12:05 | 54.54270 | -28.83198 | 39671 ft | 453 kts | 79° |
| 2026-05-09 12:05 | 54.54606 | -28.72431 | 39664 ft | 453 kts | 79° |
| 2026-05-09 12:06 | 54.54935 | -28.61562 | 39664 ft | 453 kts | 79° |
| 2026-05-09 12:06 | 54.55255 | -28.50691 | 39666 ft | 453 kts | 79° |
| 2026-05-09 12:07 | 54.55562 | -28.39902 | 39664 ft | 453 kts | 79° |
| 2026-05-09 12:07 | 54.55862 | -28.29049 | 39681 ft | 454 kts | 79° |
| 2026-05-09 12:08 | 54.56151 | -28.18197 | 39664 ft | 452 kts | 79° |
| 2026-05-09 12:08 | 54.56430 | -28.07356 | 39669 ft | 452 kts | 79° |
| 2026-05-09 12:09 | 54.56699 | -27.96613 | 39666 ft | 452 kts | 79° |
| 2026-05-09 12:09 | 54.56960 | -27.85765 | 39665 ft | 452 kts | 79° |
| 2026-05-09 12:10 | 54.57453 | -27.64049 | 39655 ft | 453 kts | 79° |
| 2026-05-09 12:11 | 54.57683 | -27.53260 | 39656 ft | 453 kts | 79° |
| 2026-05-09 12:11 | 54.57905 | -27.42382 | 39659 ft | 453 kts | 80° |
| 2026-05-09 12:12 | 54.58117 | -27.31513 | 39667 ft | 453 kts | 79° |
| 2026-05-09 12:12 | 54.58319 | -27.20719 | 39658 ft | 454 kts | 79° |
| 2026-05-09 12:13 | 54.58512 | -27.09820 | 39658 ft | 454 kts | 80° |
| 2026-05-09 12:13 | 54.58696 | -26.98930 | 39664 ft | 453 kts | 80° |
| 2026-05-09 12:14 | 54.58866 | -26.88150 | 39657 ft | 451 kts | 80° |
| 2026-05-09 12:14 | 54.59029 | -26.77312 | 39659 ft | 451 kts | 80° |
| 2026-05-09 12:15 | 54.59183 | -26.66492 | 39656 ft | 450 kts | 80° |
| 2026-05-09 12:15 | 54.59325 | -26.55766 | 39662 ft | 450 kts | 80° |
| 2026-05-09 12:16 | 54.59460 | -26.44974 | 39660 ft | 450 kts | 80° |
| 2026-05-09 12:16 | 54.59585 | -26.34168 | 39658 ft | 450 kts | 80° |
| 2026-05-09 12:17 | 54.59699 | -26.23441 | 39662 ft | 450 kts | 81° |
| 2026-05-09 12:17 | 54.59804 | -26.12651 | 39671 ft | 450 kts | 81° |
| 2026-05-09 12:18 | 54.59898 | -26.01869 | 39650 ft | 449 kts | 81° |
| 2026-05-09 12:18 | 54.59983 | -25.91160 | 39650 ft | 449 kts | 81° |
| 2026-05-09 12:19 | 54.60060 | -25.80400 | 39662 ft | 449 kts | 81° |
| 2026-05-09 12:19 | 54.60126 | -25.69645 | 39649 ft | 447 kts | 81° |
| 2026-05-09 12:20 | 54.60180 | -25.58949 | 39648 ft | 445 kts | 81° |
| 2026-05-09 12:20 | 54.60227 | -25.48292 | 39649 ft | 444 kts | 81° |
| 2026-05-09 12:21 | 54.60266 | -25.37699 | 39650 ft | 443 kts | 81° |
| 2026-05-09 12:21 | 54.60296 | -25.27059 | 39648 ft | 444 kts | 81° |
| 2026-05-09 12:22 | 54.60315 | -25.16391 | 39646 ft | 444 kts | 81° |
| 2026-05-09 12:22 | 54.60325 | -25.05732 | 39644 ft | 444 kts | 81° |
| 2026-05-09 12:23 | 54.60325 | -24.95117 | 39663 ft | 444 kts | 81° |
| 2026-05-09 12:23 | 54.60316 | -24.84457 | 39645 ft | 444 kts | 81° |
| 2026-05-09 12:24 | 54.60298 | -24.73845 | 39645 ft | 444 kts | 81° |
| 2026-05-09 12:24 | 54.60271 | -24.63185 | 39645 ft | 444 kts | 81° |
| 2026-05-09 12:25 | 54.60234 | -24.52536 | 39638 ft | 444 kts | 81° |